Terminal Aerodrome Forecast
Issued by NWS Duluth, MN

Home | Current Version | Previous Version | Text Only | Print | Product List | Glossary On
Versions: 1 2 3 4 5 6 7 8 9 10 11 12 13 14 15 16 17 18 19 20 21 22 23 24 25 26 27 28 29 30 31 32 33 34
000
FTUS43 KDLH 192300 RRA
TAFINL
TAF
KINL 192340Z 2000/2024 21005KT P6SM VCSH SCT012 BKN019
      TEMPO 2003/2006 3SM TSRA BKN013 OVC040CB
     FM200700 28007KT 6SM BR OVC015
     FM201400 28010KT P6SM SCT015
     FM202000 29011KT 3SM TSRA BR BKN014 OVC030CB=

USA.gov is the U.S. government's official web portal to all federal, state and local government web resources and services.